Forside
METAR-TAF:

METAR-TAF

Lufthavne :

Guilin, Kina

Breddekreds: 25-20N, længdekreds: 110-18E, højde: 166 m

Aktuelle vejr

Denne rapport blev lavet for 1 time og 2 minutter siden, kl. 20:00 UTC
Vind 4 kt fra varierende retninger
Temperatur 26°C
Fugtighed 94%
Tryk 1000 hPa
Sigt 10 km eller mere
Brudte skyer i en højde af 5000 ft

METAR: ZGKL 142000Z VRB02MPS 9999 BKN050 26/25 Q1000 NOSIG

Tid: 05:02 (21:02 UTC)

Vejrudsigter

Denne rapport blev lavet for 5 timer og 45 minutter siden, kl. 15:17 UTC
Foreløbig gælder fra 14 på 18 UTC til 15 på 18 UTC
Vind 6 kt fra nordøst
Sigt 10 km eller mere
Spredte skyer i en højde af 5000 ft
Midlertidig
fra 14 på 20 UTC til 14 på 24 UTC
Nogle få skyer i en højde af 3300 ft, Cumulonimbus.
Brudte skyer i en højde af 5000 ft
regnbyger

TAF: ZGKL 141517Z 1418/1518 05003MPS 9999 SCT050 TX36/1507Z TN24/1422Z TEMPO 1420/1424 SHRA FEW033CB BKN050

Vejrobservationer og prognoser fra mere end 4000 lufthavne (METAR og TAF).

De gule og røde prikker repræsenterer de meteorologiske stationer.

Flyt musen over at se navnet på stationen.

Så klik over at se vejr observationer og prognoser.

At skifte det kort: Klik på de grønne knapper med et sort kors for at zoome ind; på den grønne knap med en bindestreg for at zoome ud; eller på de grønne pile for tilstødende kort.


METAR-TAF: